Time;durP1;ratioP1;P1;durP2;ratioP2;P2;SDS_P1;SDS_P2;PMS_P1;PMS_P2;Temp;Humidity;BMP_temperature;BMP_pressure;BME280_temperature;BME280_humidity;BME280_pressure;Samples;Min_cycle;Max_cycle;Signal;HPM_P1;HPM_P2
2021/01/05 00:00:37;;;;;;;11.75;8.08;;;;;;;5.22;92.31;96771.77;1737076;82;21206;-66
2021/01/05 00:03:05;;;;;;;16.48;10.80;;;;;;;5.23;92.26;96769.53;1685082;85;21545;-66
2021/01/05 00:05:35;;;;;;;14.30;8.73;;;;;;;5.27;92.56;96770.88;1707553;84;21190;-66
2021/01/05 00:08:24;;;;;;;16.67;10.80;;;;;;;5.26;92.72;96763.63;1673527;85;21212;-67
2021/01/05 00:10:52;;;;;;;16.82;11.78;;;;;;;5.19;93.30;96767.71;1708850;84;21296;-65
2021/01/05 00:13:20;;;;;;;14.07;9.33;;;;;;;5.17;93.63;96762.37;1709129;84;21146;-65
2021/01/05 00:15:50;;;;;;;15.55;9.80;;;;;;;5.20;93.51;96762.91;1709245;84;21186;-66
2021/01/05 00:18:18;;;;;;;17.10;9.15;;;;;;;5.23;93.36;96756.66;1709256;84;21202;-66
2021/01/05 00:20:47;;;;;;;19.73;9.65;;;;;;;5.24;93.40;96757.83;1709040;84;21186;-66
2021/01/05 00:23:16;;;;;;;13.03;8.95;;;;;;;5.22;93.58;96758.42;1675005;84;21139;-67
2021/01/05 00:25:44;;;;;;;13.72;9.65;;;;;;;5.42;96.69;96759.66;1704249;84;21173;-65
2021/01/05 00:28:16;;;;;;;13.72;8.60;;;;;;;5.48;95.29;96762.98;1709132;84;21189;-65
2021/01/05 00:30:43;;;;;;;14.87;8.05;;;;;;;5.50;93.91;96755.91;1674746;86;21178;-65
2021/01/05 00:33:11;;;;;;;16.35;9.80;;;;;;;5.56;93.58;96752.29;1686716;85;21168;-67
2021/01/05 00:35:40;;;;;;;14.63;8.65;;;;;;;5.65;93.51;96745.48;1686849;85;21148;-65
2021/01/05 00:38:11;;;;;;;14.98;9.93;;;;;;;5.72;93.22;96743.95;1708906;84;21324;-67
2021/01/05 00:40:39;;;;;;;16.90;10.03;;;;;;;5.79;92.80;96741.17;1674589;86;21178;-65
2021/01/05 00:43:07;;;;;;;17.25;9.40;;;;;;;5.80;92.01;96745.85;1708927;84;21304;-65
2021/01/05 00:45:40;;;;;;;16.12;10.53;;;;;;;5.78;91.31;96742.59;1674842;86;21170;-67
2021/01/05 00:48:08;;;;;;;16.45;8.83;;;;;;;5.76;91.18;96745.30;1708983;84;21217;-67
2021/01/05 00:50:37;;;;;;;14.73;9.93;;;;;;;5.74;91.15;96743.36;1674617;86;21166;-65
2021/01/05 00:53:05;;;;;;;17.12;10.25;;;;;;;5.69;90.88;96742.49;1686544;85;21621;-67
2021/01/05 00:55:34;;;;;;;16.82;9.28;;;;;;;5.69;90.98;96746.83;1708995;84;21135;-64
2021/01/05 00:58:02;;;;;;;13.15;8.28;;;;;;;5.73;91.17;96753.31;1674788;85;21215;-65
2021/01/05 01:00:31;;;;;;;13.98;8.88;;;;;;;5.71;91.10;96749.61;1708857;84;21316;-65
2021/01/05 01:03:07;;;;;;;14.13;8.70;;;;;;;5.73;91.24;96750.27;1675260;85;21647;-65
2021/01/05 01:05:36;;;;;;;14.65;9.18;;;;;;;5.73;91.10;96753.31;1686739;85;21607;-65
2021/01/05 01:08:06;;;;;;;18.07;9.85;;;;;;;5.73;91.04;96754.13;1709096;84;21174;-65
2021/01/05 01:10:34;;;;;;;14.10;8.33;;;;;;;5.73;91.10;96756.71;1653300;85;21250;-65
2021/01/05 01:13:03;;;;;;;14.65;9.68;;;;;;;5.76;91.12;96751.73;1691630;84;21358;-65
2021/01/05 01:15:32;;;;;;;14.83;9.10;;;;;;;5.83;91.18;96752.81;1691800;84;21187;-65
2021/01/05 01:18:03;;;;;;;16.65;10.28;;;;;;;5.91;91.20;96758.10;1653966;87;21186;-66
2021/01/05 01:20:33;;;;;;;16.12;9.63;;;;;;;5.96;90.85;96758.47;1626992;87;21226;-67
2021/01/05 01:23:03;;;;;;;16.67;9.15;;;;;;;5.97;90.53;96756.23;1653716;87;21186;-66
2021/01/05 01:25:31;;;;;;;12.58;8.98;;;;;;;5.98;90.41;96761.72;1653650;87;21182;-66
2021/01/05 01:28:01;;;;;;;13.83;9.68;;;;;;;6.02;90.52;96757.91;1653667;87;21182;-66
2021/01/05 01:30:31;;;;;;;13.95;9.35;;;;;;;6.08;90.38;96756.50;1653558;86;21159;-67
2021/01/05 01:33:00;;;;;;;17.12;9.60;;;;;;;6.09;90.13;96756.38;1653644;87;21183;-67
2021/01/05 01:35:30;;;;;;;16.32;10.20;;;;;;;6.11;90.00;96746.71;1653812;87;21341;-67
2021/01/05 01:38:00;;;;;;;22.13;13.15;;;;;;;6.12;89.79;96742.38;1653716;87;21178;-67
2021/01/05 01:40:36;;;;;;;21.23;12.75;;;;;;;6.14;89.72;96747.73;1653559;87;21606;-67
2021/01/05 01:43:08;;;;;;;22.70;12.95;;;;;;;6.14;89.50;96745.16;1653683;87;21167;-67
2021/01/05 01:45:37;;;;;;;25.85;15.05;;;;;;;6.03;88.87;96744.05;1653815;87;21372;-68
2021/01/05 01:48:09;;;;;;;20.37;13.30;;;;;;;5.97;88.85;96738.19;1627054;87;21190;-67
2021/01/05 01:50:38;;;;;;;23.65;13.88;;;;;;;5.90;89.03;96735.86;1653756;87;21528;-67
2021/01/05 01:53:34;;;;;;;24.20;13.53;;;;;;;5.80;89.29;96732.47;1653595;87;21198;-65
2021/01/05 01:56:18;;;;;;;24.35;14.05;;;;;;;5.76;89.37;96729.06;1653916;87;21690;-65
2021/01/05 01:59:02;;;;;;;20.15;12.28;;;;;;;5.64;89.90;96728.44;1651681;87;21269;-65
2021/01/05 02:01:58;;;;;;;20.92;13.70;;;;;;;5.54;90.49;96726.36;1653585;87;21603;-66
2021/01/05 02:04:33;;;;;;;23.87;12.95;;;;;;;5.44;91.05;96732.84;1651083;86;21623;-66
2021/01/05 02:07:44;;;;;;;23.87;14.03;;;;;;;5.39;90.99;96724.72;1653932;87;21231;-66
2021/01/05 02:10:34;;;;;;;15.78;12.75;;;;;;;5.33;91.58;96728.34;1658551;84;21166;-65
2021/01/05 02:13:39;;;;;;;17.30;11.97;;;;;;;5.12;92.82;96729.34;1677826;84;21353;-68
2021/01/05 02:16:26;;;;;;;17.32;11.18;;;;;;;5.06;92.94;96726.02;1730187;81;21264;-66
2021/01/05 02:19:01;;;;;;;19.70;12.28;;;;;;;4.93;93.87;96723.41;1730254;83;21299;-66
2021/01/05 02:21:56;;;;;;;17.70;12.43;;;;;;;4.93;93.90;96722.94;1730154;81;21193;-65
2021/01/05 02:24:52;;;;;;;18.05;10.55;;;;;;;4.84;94.66;96723.75;1730246;81;21323;-66
2021/01/05 02:27:20;;;;;;;14.60;10.25;;;;;;;4.87;94.72;96720.91;1730332;83;21158;-66
2021/01/05 02:30:13;;;;;;;16.85;11.40;;;;;;;4.86;94.77;96720.59;1730322;81;21288;-67
2021/01/05 02:32:53;;;;;;;18.23;10.58;;;;;;;4.87;94.88;96717.52;1693913;83;21144;-67
2021/01/05 02:39:40;;;;;;;14.25;9.98;;;;;;;4.92;94.14;96717.45;1718682;82;21200;-67
2021/01/05 02:43:07;;;;;;;16.70;12.20;;;;;;;4.96;93.80;96726.98;1723173;82;21309;-67
2021/01/05 02:46:28;;;;;;;16.67;11.83;;;;;;;4.97;93.49;96723.47;1722961;82;21251;-68
2021/01/05 02:52:48;;;;;;;20.70;11.83;;;;;;;4.97;93.13;96721.72;1643348;87;21195;-66
2021/01/05 02:56:13;;;;;;;19.25;13.08;;;;;;;4.95;93.01;96721.03;1669110;85;21609;-66
2021/01/05 02:59:52;;;;;;;16.55;11.63;;;;;;;4.82;94.50;96717.95;1670195;84;21180;-65
2021/01/05 03:03:15;;;;;;;13.25;9.23;;;;;;;4.79;94.39;96714.34;1727379;82;21180;-66
2021/01/05 03:06:29;;;;;;;11.30;8.80;;;;;;;4.72;94.80;96705.09;1711708;82;21129;-67
2021/01/05 03:09:43;;;;;;;14.13;10.60;;;;;;;4.69;95.05;96709.23;1705999;82;21208;-67
2021/01/05 03:13:04;;;;;;;11.67;9.47;;;;;;;4.64;95.49;96708.00;1727520;82;21173;-68
2021/01/05 03:16:26;;;;;;;14.45;8.93;;;;;;;4.65;95.61;96710.91;1727408;82;21648;-67
2021/01/05 03:19:30;;;;;;;11.12;8.38;;;;;;;4.68;95.38;96711.45;1668658;85;21172;-67
2021/01/05 03:22:20;;;;;;;9.90;7.00;;;;;;;4.73;95.35;96702.05;1690976;85;21239;-67
2021/01/05 03:25:09;;;;;;;14.05;9.15;;;;;;;4.81;94.93;96691.07;1648347;86;21200;-64
2021/01/05 03:28:00;;;;;;;12.58;8.45;;;;;;;4.77;94.68;96687.97;1648199;87;21314;-67
2021/01/05 03:31:01;;;;;;;13.68;8.90;;;;;;;4.85;94.35;96693.70;1648177;86;21305;-67
2021/01/05 03:33:53;;;;;;;11.05;8.20;;;;;;;4.92;94.23;96693.02;1649009;87;21224;-65
2021/01/05 03:36:39;;;;;;;11.65;7.90;;;;;;;4.77;94.43;96687.97;1648059;87;21189;-67
2021/01/05 03:39:27;;;;;;;12.85;7.47;;;;;;;4.83;94.40;96691.27;1648201;87;21160;-67
2021/01/05 03:42:13;;;;;;;11.38;7.67;;;;;;;4.86;94.25;96689.72;1648255;87;21582;-66
2021/01/05 03:45:01;;;;;;;12.78;7.40;;;;;;;4.83;94.57;96695.12;1609189;87;21204;-65
2021/01/05 03:47:47;;;;;;;6.70;5.17;;;;;;;4.85;94.72;96697.09;1582868;89;21225;-66
2021/01/05 03:50:34;;;;;;;9.30;6.65;;;;;;;4.92;94.38;96696.06;1670813;85;21179;-66
2021/01/05 03:53:21;;;;;;;10.18;6.10;;;;;;;4.98;94.21;96692.95;1648446;86;21199;-66
2021/01/05 03:56:07;;;;;;;11.85;6.60;;;;;;;5.08;94.30;96691.16;1648355;86;21208;-65
2021/01/05 03:58:53;;;;;;;;;;;;;;;5.17;93.97;96692.42;1650794;86;21230;-66
2021/01/05 04:01:54;;;;;;;8.88;5.85;;;;;;;5.22;93.68;96694.55;1648324;87;20295;-66
2021/01/05 04:04:23;;;;;;;8.20;6.08;;;;;;;5.22;93.18;96694.55;1648194;86;21175;-65
2021/01/05 04:06:51;;;;;;;9.03;5.75;;;;;;;5.28;92.87;96702.20;1648240;87;21565;-66
2021/01/05 04:09:19;;;;;;;8.25;6.58;;;;;;;5.31;92.72;96705.30;1648135;87;21385;-66
2021/01/05 04:11:47;;;;;;;8.28;5.42;;;;;;;5.34;92.60;96702.44;1648146;86;21660;-66
2021/01/05 04:14:15;;;;;;;6.03;4.37;;;;;;;5.35;92.53;96711.80;1647917;87;21333;-66
2021/01/05 04:16:47;;;;;;;8.28;5.30;;;;;;;5.39;92.51;96712.32;1650431;85;21309;-68
2021/01/05 04:19:16;;;;;;;7.05;4.72;;;;;;;5.45;92.58;96715.13;1683807;85;21232;-67
2021/01/05 04:21:46;;;;;;;6.42;4.33;;;;;;;5.37;92.80;96716.31;1660383;86;21243;-68
2021/01/05 04:24:14;;;;;;;4.60;3.72;;;;;;;5.48;92.57;96721.78;1676834;85;21148;-66
2021/01/05 04:26:42;;;;;;;7.10;5.50;;;;;;;5.46;92.53;96727.06;1676790;85;21184;-65
2021/01/05 04:29:09;;;;;;;6.90;4.58;;;;;;;5.45;92.81;96730.58;1676702;85;21196;-65
2021/01/05 04:31:40;;;;;;;5.67;3.45;;;;;;;5.50;92.62;96730.98;1676867;85;21234;-68
2021/01/05 04:34:09;;;;;;;3.37;3.02;;;;;;;5.50;92.44;96739.17;1676633;85;21183;-66
2021/01/05 04:36:38;;;;;;;4.60;3.37;;;;;;;5.54;92.33;96736.66;1676922;85;21314;-66
2021/01/05 04:39:08;;;;;;;5.35;3.87;;;;;;;5.63;92.49;96740.50;1676797;85;21156;-66
2021/01/05 04:41:47;;;;;;;6.30;4.05;;;;;;;5.56;92.10;96720.60;1676843;85;21632;-66
2021/01/05 04:44:17;;;;;;;8.58;4.55;;;;;;;5.70;91.90;96733.00;1676919;85;21183;-68
2021/01/05 04:47:26;;;;;;;7.37;4.50;;;;;;;5.74;91.84;96741.59;1676653;85;21196;-65
2021/01/05 04:50:03;;;;;;;7.90;4.45;;;;;;;5.76;91.50;96744.52;1685335;85;21163;-68
2021/01/05 04:52:42;;;;;;;;;;;;;;;5.82;91.64;96742.17;1687634;85;21171;-65
2021/01/05 04:55:54;;;;;;;7.25;4.87;;;;;;;5.85;91.31;96740.59;1685304;85;20182;-65
2021/01/05 04:58:36;;;;;;;5.55;4.30;;;;;;;5.84;90.94;96742.83;1685387;85;21595;-68
2021/01/05 05:01:09;;;;;;;9.83;5.12;;;;;;;5.80;90.81;96749.72;1608044;87;21172;-67
2021/01/05 05:03:58;;;;;;;10.00;5.90;;;;;;;5.81;91.12;96751.31;1642896;86;21124;-67
2021/01/05 05:06:48;;;;;;;10.25;6.40;;;;;;;5.81;91.15;96750.84;1643226;87;21184;-67
2021/01/05 05:09:42;;;;;;;10.50;5.40;;;;;;;5.77;91.23;96755.95;1643272;87;21668;-67
2021/01/05 05:12:21;;;;;;;8.65;6.50;;;;;;;5.73;91.32;96758.47;1642918;87;21577;-67
2021/01/05 05:15:04;;;;;;;9.63;6.80;;;;;;;5.60;92.13;96758.78;1643284;87;21569;-67
2021/01/05 05:18:15;;;;;;;11.12;5.95;;;;;;;5.59;92.17;96757.66;1642995;86;21184;-67
2021/01/05 05:20:58;;;;;;;8.70;5.45;;;;;;;5.61;91.89;96760.88;1709784;84;21166;-66
2021/01/05 05:23:55;;;;;;;11.83;6.37;;;;;;;5.63;91.84;96755.13;1712459;82;21163;-67
2021/01/05 05:26:29;;;;;;;10.13;6.05;;;;;;;5.62;91.68;96754.31;1709921;84;21179;-68
2021/01/05 05:29:21;;;;;;;9.78;6.08;;;;;;;5.61;91.56;96761.70;1691946;85;21595;-68
2021/01/05 05:31:51;;;;;;;8.90;5.90;;;;;;;5.57;91.73;96760.83;1704328;83;21147;-67
2021/01/05 05:34:30;;;;;;;11.68;6.92;;;;;;;5.56;91.70;96763.09;1694404;85;21317;-66
2021/01/05 05:37:47;;;;;;;10.15;6.20;;;;;;;5.55;91.81;96763.56;1694417;84;21509;-66
2021/01/05 05:40:54;;;;;;;6.47;4.80;;;;;;;5.53;91.87;96764.64;1694637;85;21305;-66
2021/01/05 05:43:48;;;;;;;24.27;7.33;;;;;;;5.46;92.59;96760.53;1729022;83;21297;-68
2021/01/05 05:46:31;;;;;;;18.45;7.00;;;;;;;5.42;92.82;96763.05;1729117;82;21304;-66
2021/01/05 05:49:10;;;;;;;17.82;6.92;;;;;;;5.42;92.58;96758.38;1726532;82;21575;-67
2021/01/05 05:54:48;;;;;;;10.10;5.65;;;;;;;5.38;93.44;96764.75;1763148;81;21143;-67
2021/01/05 05:57:45;;;;;;;7.50;5.62;;;;;;;5.35;95.12;96761.17;1763143;81;21158;-67
2021/01/05 06:00:38;;;;;;;11.10;6.25;;;;;;;5.37;95.80;96764.44;1762936;81;21580;-67
2021/01/05 06:03:09;;;;;;;7.95;4.40;;;;;;;5.40;95.40;96764.16;1705079;84;21510;-68
2021/01/05 06:05:39;;;;;;;8.98;5.05;;;;;;;5.41;94.65;96770.43;1704936;83;21169;-68
2021/01/05 06:08:08;;;;;;;8.98;5.42;;;;;;;5.45;94.30;96770.48;1705154;83;21172;-67
2021/01/05 06:10:36;;;;;;;9.10;5.00;;;;;;;5.46;93.99;96768.73;1705387;83;21606;-68
2021/01/05 06:13:05;;;;;;;9.15;4.40;;;;;;;5.46;94.36;96773.88;1705174;83;21662;-68
2021/01/05 06:15:34;;;;;;;8.05;5.35;;;;;;;5.47;94.34;96783.23;1705259;83;21170;-68
2021/01/05 06:18:05;;;;;;;8.75;5.60;;;;;;;5.48;94.09;96781.00;1704972;83;21169;-68
2021/01/05 06:20:32;;;;;;;6.62;4.62;;;;;;;5.46;95.05;96786.28;1704521;83;21217;-68
2021/01/05 06:23:00;;;;;;;6.37;4.55;;;;;;;5.43;95.57;96785.28;1704089;83;21213;-68
2021/01/05 06:25:29;;;;;;;7.85;3.72;;;;;;;5.48;94.93;96787.44;1704536;83;21162;-68
2021/01/05 06:27:57;;;;;;;5.72;3.95;;;;;;;5.50;94.86;96788.91;1704841;83;21205;-67
2021/01/05 06:30:26;;;;;;;5.80;4.58;;;;;;;5.55;94.56;96785.45;1705361;83;21186;-68
2021/01/05 06:32:53;;;;;;;8.08;5.17;;;;;;;5.57;94.74;96789.97;1705138;83;21257;-68
2021/01/05 06:35:23;;;;;;;6.10;4.40;;;;;;;5.69;96.89;96786.28;1705171;83;21201;-65
2021/01/05 06:37:52;;;;;;;8.63;5.92;;;;;;;5.85;98.08;96786.97;1706302;82;21659;-64
2021/01/05 06:40:24;;;;;;;9.78;4.15;;;;;;;5.95;97.48;96785.68;1707961;83;21599;-64
2021/01/05 06:42:53;;;;;;;7.08;4.70;;;;;;;5.96;95.87;96785.99;1703953;83;21521;-64
2021/01/05 06:45:30;;;;;;;6.05;4.85;;;;;;;5.97;94.88;96788.44;1698694;84;21215;-65
2021/01/05 06:47:59;;;;;;;;;;;;;;;5.97;94.25;96797.45;1680076;84;21733;-65
2021/01/05 06:50:30;;;;;;;8.33;4.75;;;;;;;5.97;93.75;96799.22;1699535;84;20159;-70
2021/01/05 06:52:58;;;;;;;11.38;6.08;;;;;;;5.99;93.74;96801.98;1699153;84;21210;-69
2021/01/05 06:55:27;;;;;;;8.03;5.42;;;;;;;5.95;93.41;96807.08;1699425;84;21168;-66
2021/01/05 06:57:55;;;;;;;7.72;5.00;;;;;;;5.95;93.45;96812.23;1699260;84;21603;-66
2021/01/05 07:00:47;;;;;;;8.05;4.85;;;;;;;6.00;93.32;96803.61;1699114;84;21568;-66
2021/01/05 07:03:15;;;;;;;6.30;4.22;;;;;;;6.07;93.30;96805.95;1736227;82;21356;-66
2021/01/05 07:05:43;;;;;;;7.97;5.20;;;;;;;6.16;93.26;96805.57;1736059;82;21713;-66
2021/01/05 07:08:10;;;;;;;7.97;5.65;;;;;;;6.25;93.30;96812.45;1705099;83;21172;-65
2021/01/05 07:10:38;;;;;;;7.92;4.70;;;;;;;6.32;92.91;96813.97;1700311;84;21171;-65
2021/01/05 07:13:08;;;;;;;14.85;5.67;;;;;;;6.32;91.77;96812.68;1741417;82;21180;-66
2021/01/05 07:15:46;;;;;;;9.80;5.60;;;;;;;6.38;92.31;96815.48;1709667;83;21526;-65
2021/01/05 07:18:15;;;;;;;8.08;5.20;;;;;;;6.40;91.94;96809.72;1680059;84;21195;-68
2021/01/05 07:20:45;;;;;;;13.95;6.55;;;;;;;6.32;91.15;96805.76;1679044;84;21619;-68
2021/01/05 07:23:13;;;;;;;9.60;7.10;;;;;;;6.31;91.82;96802.03;1680062;84;21203;-67
2021/01/05 07:25:41;;;;;;;14.13;6.65;;;;;;;6.30;91.97;96806.39;1679989;84;21207;-68
2021/01/05 07:28:09;;;;;;;11.28;6.53;;;;;;;6.31;91.60;96800.73;1680076;84;21678;-68
2021/01/05 07:30:37;;;;;;;17.90;7.65;;;;;;;6.33;91.25;96806.58;1680001;84;21663;-69
2021/01/05 07:33:05;;;;;;;12.85;7.20;;;;;;;6.27;91.72;96809.71;1679753;84;21175;-69
2021/01/05 07:35:33;;;;;;;16.12;7.83;;;;;;;6.37;91.66;96810.02;1679619;84;21651;-68
2021/01/05 07:38:02;;;;;;;12.25;7.70;;;;;;;6.46;91.77;96815.58;1679727;84;21160;-69
2021/01/05 07:40:31;;;;;;;13.15;8.33;;;;;;;6.59;91.73;96819.10;1679091;84;21242;-66
2021/01/05 07:46:36;;;;;;;11.95;7.17;;;;;;;6.75;91.14;96817.16;1681206;85;21306;-68
2021/01/05 07:52:43;;;;;;;9.40;6.03;;;;;;;6.71;90.65;96811.96;1681350;85;21131;-67
2021/01/05 07:55:33;;;;;;;9.93;5.08;;;;;;;6.76;90.63;96814.92;1681109;85;21191;-68
2021/01/05 07:58:01;;;;;;;9.90;6.90;;;;;;;6.82;90.68;96828.52;1702405;82;21184;-69
2021/01/05 08:00:30;;;;;;;11.53;6.58;;;;;;;6.87;90.52;96837.45;1732747;81;21605;-68
2021/01/05 08:02:58;;;;;;;11.08;6.72;;;;;;;6.85;90.15;96840.64;1732514;81;21625;-67
2021/01/05 08:05:29;;;;;;;13.38;8.18;;;;;;;6.93;90.41;96834.27;1733025;81;21200;-68
2021/01/05 08:07:58;;;;;;;17.20;8.65;;;;;;;7.02;90.43;96834.69;1733155;81;21160;-66
2021/01/05 08:10:30;;;;;;;18.80;9.05;;;;;;;7.07;89.77;96829.90;1732576;81;21192;-68
2021/01/05 08:13:00;;;;;;;16.80;8.60;;;;;;;7.10;89.91;96834.76;1732620;81;21145;-68
2021/01/05 08:15:31;;;;;;;18.23;8.63;;;;;;;7.15;89.97;96831.73;1732156;82;21146;-68
2021/01/05 08:18:01;;;;;;;14.83;8.83;;;;;;;7.23;90.03;96837.45;1732452;81;21185;-68
2021/01/05 08:20:32;;;;;;;13.58;7.95;;;;;;;7.28;90.01;96839.89;1732753;81;21160;-66
2021/01/05 08:23:03;;;;;;;12.53;8.35;;;;;;;7.33;89.63;96844.61;1732890;81;21232;-65
2021/01/05 08:25:32;;;;;;;13.20;9.10;;;;;;;7.33;89.40;96841.55;1732762;81;21172;-65
2021/01/05 08:28:01;;;;;;;18.02;9.68;;;;;;;7.30;88.97;96842.34;1733213;81;21172;-68
2021/01/05 08:30:34;;;;;;;14.80;8.03;;;;;;;7.20;90.08;96840.33;1733757;82;21129;-72
2021/01/05 08:33:07;;;;;;;16.00;8.08;;;;;;;7.18;89.89;96841.76;1733447;81;21160;-66
2021/01/05 08:35:37;;;;;;;14.23;7.42;;;;;;;7.23;89.89;96846.48;1733110;81;21176;-74
2021/01/05 08:38:06;;;;;;;15.98;7.70;;;;;;;7.25;89.80;96851.81;1734040;81;21148;-67
2021/01/05 08:40:35;;;;;;;13.95;7.17;;;;;;;7.30;89.81;96856.06;1734312;81;21291;-77
2021/01/05 08:43:09;;;;;;;20.23;7.97;;;;;;;7.34;89.75;96856.58;1733212;81;21192;-68
2021/01/05 08:45:40;;;;;;;14.63;8.70;;;;;;;7.38;89.68;96860.00;1733120;81;21279;-66
2021/01/05 08:48:29;;;;;;;23.27;11.78;;;;;;;7.33;89.87;96853.17;1732419;81;21192;-66
2021/01/05 08:50:57;;;;;;;44.98;21.57;;;;;;;7.35;89.86;96859.50;1695742;84;21731;-67
2021/01/05 08:53:27;;;;;;;51.98;23.55;;;;;;;7.37;90.19;96854.98;1678203;85;21611;-65
2021/01/05 08:55:55;;;;;;;29.87;16.30;;;;;;;7.42;90.28;96860.04;1678516;85;21603;-65
2021/01/05 08:58:23;;;;;;;19.48;10.53;;;;;;;7.49;90.16;96861.53;1675981;85;21588;-65
2021/01/05 09:00:51;;;;;;;11.93;8.10;;;;;;;7.55;89.95;96866.09;1676177;85;21587;-65
2021/01/05 09:03:18;;;;;;;17.70;8.30;;;;;;;7.59;89.78;96875.97;1679219;84;21211;-65
2021/01/05 09:05:46;;;;;;;13.72;7.50;;;;;;;7.60;89.11;96875.02;1682633;84;21223;-65
2021/01/05 09:08:15;;;;;;;16.27;7.95;;;;;;;7.50;88.79;96868.33;1685701;84;21222;-69
2021/01/05 09:10:43;;;;;;;12.20;8.30;;;;;;;7.62;89.01;96877.47;1681811;84;21188;-68
2021/01/05 09:13:11;;;;;;;15.72;9.35;;;;;;;7.65;88.97;96883.62;1683755;84;21636;-68
2021/01/05 09:15:40;;;;;;;15.98;8.80;;;;;;;7.68;88.82;96886.37;1679211;84;21162;-68
2021/01/05 09:20:51;;;;;;;16.52;8.75;;;;;;;7.68;88.43;96887.19;1655358;84;21207;-68
2021/01/05 09:23:22;;;;;;;19.87;9.40;;;;;;;7.67;88.35;96897.18;1675830;84;21575;-68
2021/01/05 09:25:55;;;;;;;18.60;8.93;;;;;;;7.64;88.24;96896.20;1679156;84;21652;-66
2021/01/05 09:28:27;;;;;;;16.93;8.18;;;;;;;7.61;88.60;96897.80;1679276;85;21215;-67
2021/01/05 09:30:55;;;;;;;10.18;5.65;;;;;;;7.61;88.71;96902.48;1674237;86;21362;-68
2021/01/05 09:33:23;;;;;;;8.95;5.42;;;;;;;7.61;88.68;96899.09;1671256;84;21146;-68
2021/01/05 09:35:52;;;;;;;9.50;5.47;;;;;;;7.61;88.39;96902.96;1656667;84;21591;-68
2021/01/05 09:38:20;;;;;;;8.05;5.70;;;;;;;7.57;87.79;96899.87;1661744;85;21171;-67
2021/01/05 09:40:48;;;;;;;7.95;4.67;;;;;;;7.57;87.78;96903.75;1685296;85;21223;-69
2021/01/05 09:43:17;;;;;;;6.42;4.83;;;;;;;7.55;87.44;96912.59;1677951;84;21206;-67
2021/01/05 09:45:46;;;;;;;8.15;5.12;;;;;;;7.51;86.77;96919.83;1682515;84;21580;-69
2021/01/05 09:48:17;;;;;;;6.55;4.17;;;;;;;7.50;86.54;96909.66;1686872;84;21164;-66
2021/01/05 09:50:46;;;;;;;9.38;5.03;;;;;;;7.54;86.84;96910.98;1685432;85;21164;-68
2021/01/05 09:53:16;;;;;;;9.40;5.67;;;;;;;7.49;85.98;96915.30;1680240;85;21558;-68
2021/01/05 09:55:44;;;;;;;8.65;5.53;;;;;;;7.44;86.02;96902.02;1683566;85;21226;-68
2021/01/05 09:58:12;;;;;;;9.65;5.70;;;;;;;7.50;86.63;96907.89;1683095;85;21541;-68
2021/01/05 10:00:42;;;;;;;11.70;6.53;;;;;;;7.50;86.48;96905.78;1693029;84;21203;-68
2021/01/05 10:03:10;;;;;;;6.95;5.03;;;;;;;7.53;86.44;96912.75;1691565;84;21576;-68
2021/01/05 10:05:41;;;;;;;7.30;5.12;;;;;;;7.49;86.89;96911.43;1695294;84;21154;-68
2021/01/05 10:08:10;;;;;;;11.60;6.80;;;;;;;7.49;86.83;96904.16;1703812;84;21753;-69
2021/01/05 10:10:39;;;;;;;6.58;4.65;;;;;;;7.58;86.80;96903.27;1703833;84;21207;-68
2021/01/05 10:13:09;;;;;;;5.22;4.72;;;;;;;7.69;86.90;96911.25;1688528;84;21186;-68
2021/01/05 10:15:39;;;;;;;9.73;4.05;;;;;;;7.74;86.30;96915.50;1686148;84;21525;-68
2021/01/05 10:18:09;;;;;;;10.90;4.55;;;;;;;7.88;86.44;96914.95;1692707;84;21295;-69
2021/01/05 10:20:37;;;;;;;7.40;4.25;;;;;;;7.97;86.10;96909.70;1692917;84;21145;-68
2021/01/05 10:23:07;;;;;;;6.37;3.52;;;;;;;8.05;85.78;96910.22;1676270;84;21191;-68
2021/01/05 10:25:35;;;;;;;5.40;3.65;;;;;;;8.17;85.64;96905.61;1673174;84;21652;-68
2021/01/05 10:28:05;;;;;;;6.28;3.90;;;;;;;8.26;85.51;96909.84;1669376;85;21199;-68
2021/01/05 10:30:34;;;;;;;5.00;3.37;;;;;;;8.37;85.33;96914.30;1661091;86;21224;-68
2021/01/05 10:33:03;;;;;;;4.95;3.37;;;;;;;8.43;85.02;96910.30;1616426;87;21239;-68
2021/01/05 10:35:32;;;;;;;5.22;3.65;;;;;;;8.54;84.82;96919.07;1650454;85;21199;-68
2021/01/05 10:38:00;;;;;;;5.58;3.62;;;;;;;8.62;84.68;96912.63;1665045;86;21120;-69
2021/01/05 10:40:29;;;;;;;3.15;2.35;;;;;;;8.67;83.88;96918.16;1654701;86;21614;-68
2021/01/05 10:42:57;;;;;;;6.90;3.30;;;;;;;8.71;84.04;96919.95;1662234;86;21152;-68
2021/01/05 10:45:26;;;;;;;5.92;3.80;;;;;;;8.66;83.18;96920.41;1661198;85;21150;-68
2021/01/05 10:47:57;;;;;;;5.95;3.80;;;;;;;8.59;82.51;96924.60;1652413;85;21152;-68
2021/01/05 10:50:26;;;;;;;9.30;2.67;;;;;;;8.62;83.16;96920.88;1659061;86;21191;-68
2021/01/05 10:52:54;;;;;;;4.75;3.05;;;;;;;8.57;82.43;96926.03;1694148;84;21207;-69
2021/01/05 10:55:23;;;;;;;6.50;3.33;;;;;;;8.55;82.77;96927.17;1654866;86;21208;-68
2021/01/05 10:57:51;;;;;;;4.47;2.70;;;;;;;8.55;83.30;96931.05;1663112;86;21183;-68
2021/01/05 11:00:43;;;;;;;5.37;2.85;;;;;;;8.56;83.47;96933.94;1646673;87;21294;-68
2021/01/05 11:03:11;;;;;;;4.67;2.80;;;;;;;8.52;83.03;96934.73;1592446;89;21704;-68
2021/01/05 11:05:39;;;;;;;4.05;2.60;;;;;;;8.47;83.00;96936.19;1592368;90;21206;-67
2021/01/05 11:08:08;;;;;;;2.10;1.50;;;;;;;8.45;82.99;96938.09;1581419;90;21198;-67
2021/01/05 11:10:36;;;;;;;1.90;1.30;;;;;;;8.42;82.92;96937.94;1567925;90;21218;-72
2021/01/05 11:13:04;;;;;;;3.05;1.90;;;;;;;8.41;82.90;96936.30;1616401;88;21228;-68
2021/01/05 11:15:32;;;;;;;2.35;1.52;;;;;;;8.42;82.92;96939.23;1617121;87;21655;-68
2021/01/05 11:18:00;;;;;;;5.33;2.37;;;;;;;8.42;83.09;96930.66;1639410;86;21182;-69
2021/01/05 11:20:28;;;;;;;2.12;1.35;;;;;;;8.44;83.17;96935.20;1645574;86;21887;-68
2021/01/05 11:22:56;;;;;;;3.00;1.85;;;;;;;8.45;83.15;96938.91;1657963;86;21734;-69
2021/01/05 11:25:24;;;;;;;3.17;1.57;;;;;;;8.42;82.56;96944.41;1658124;86;21357;-70
2021/01/05 11:27:52;;;;;;;2.47;1.57;;;;;;;8.43;82.16;96942.63;1657924;86;21679;-69
2021/01/05 11:30:24;;;;;;;4.35;2.00;;;;;;;8.44;82.09;96942.45;1649558;86;21212;-71
2021/01/05 11:32:52;;;;;;;4.33;2.47;;;;;;;8.43;82.56;96946.52;1592278;87;21245;-69
2021/01/05 11:35:21;;;;;;;3.08;2.67;;;;;;;8.41;82.26;96947.95;1617393;87;21189;-69
2021/01/05 11:37:50;;;;;;;6.37;3.10;;;;;;;8.39;82.48;96958.13;1639555;86;21419;-69
2021/01/05 11:40:19;;;;;;;8.95;5.83;;;;;;;8.39;82.40;96954.25;1635598;86;21224;-70
2021/01/05 11:42:49;;;;;;;9.83;4.75;;;;;;;8.35;82.96;96963.28;1617175;89;21173;-69
2021/01/05 11:45:18;;;;;;;3.83;2.40;;;;;;;8.40;82.87;96965.75;1614729;86;21227;-69
2021/01/05 11:47:46;;;;;;;2.35;1.45;;;;;;;8.35;82.19;96965.39;1591561;88;21627;-70
2021/01/05 11:50:14;;;;;;;3.47;1.25;;;;;;;8.35;82.49;96969.75;1591729;88;21301;-70
2021/01/05 11:52:42;;;;;;;2.80;1.10;;;;;;;8.34;82.50;96975.39;1613241;89;21903;-69
2021/01/05 11:55:12;;;;;;;1.70;1.20;;;;;;;8.31;82.63;96980.06;1591761;88;21626;-70
2021/01/05 11:57:43;;;;;;;2.50;1.20;;;;;;;8.28;82.35;96981.64;1616901;86;21209;-70
2021/01/05 12:00:33;;;;;;;2.20;1.30;;;;;;;8.28;82.57;96980.34;1625208;86;21133;-69
2021/01/05 12:03:01;;;;;;;3.20;1.37;;;;;;;8.29;82.56;96989.73;1643902;85;21135;-69
2021/01/05 12:05:29;;;;;;;3.47;1.72;;;;;;;8.30;82.84;96999.13;1647459;85;21170;-69
2021/01/05 12:07:57;;;;;;;2.83;1.45;;;;;;;8.20;82.22;97001.80;1621781;87;21242;-69
2021/01/05 12:10:26;;;;;;;2.42;1.27;;;;;;;8.21;82.67;97005.98;1624687;88;21769;-69
2021/01/05 12:12:53;;;;;;;1.62;1.02;;;;;;;8.15;80.98;97004.02;1624934;88;21251;-69
2021/01/05 12:15:21;;;;;;;4.15;0.78;;;;;;;8.18;81.27;97007.58;1647516;85;21218;-70
2021/01/05 12:17:49;;;;;;;32.10;14.73;;;;;;;8.21;82.30;97009.86;1625316;88;21162;-70
2021/01/05 12:20:18;;;;;;;36.00;17.65;;;;;;;8.23;82.06;97009.25;1647304;85;21218;-71
2021/01/05 12:22:46;;;;;;;55.20;23.30;;;;;;;8.25;81.98;97009.89;1647510;85;21320;-70
2021/01/05 12:25:14;;;;;;;25.90;13.20;;;;;;;8.26;81.50;97006.83;1647329;85;21163;-70
2021/01/05 12:27:42;;;;;;;3.65;3.15;;;;;;;8.25;81.12;97015.58;1647576;85;21148;-69
2021/01/05 12:30:34;;;;;;;1.37;1.22;;;;;;;8.28;81.30;97015.27;1644111;85;22216;-68
2021/01/05 12:33:02;;;;;;;0.68;0.53;;;;;;;8.30;81.33;97019.34;1563999;91;21266;-70
2021/01/05 12:35:30;;;;;;;1.52;0.90;;;;;;;8.24;79.96;97022.52;1563805;92;21257;-69